Dauntless Aviation
Airports Europe Ireland
EIKY
KIR

Kerry Airport

Killarney, IRELAND

Airport Info
Suggest Updated Information for this Airport

Location

Latitude / Longitude: 52°10'51"N / 9°31'25"W
  52°10.854'N / 9°31.428'W
  52.1809 / -9.5238

Nearby radio navigation aids

KER KERRY NDB on field.

Runway Information

Runway 07 /25

Dimensions: 4035 x 98 ft.
Surface: ASP
 
Runway 07
Runway 25
Latitude: 52.178858 52.184708
Longitude: -9.538858 -9.523636
Elevation: 75 ft. 75 ft.
Runway true heading: 55.6 235.6
 

Runway 08 /26

Dimensions: 6562 x 148 ft.
Surface: ASP
 
Runway 08
Runway 26
Latitude: 52.177986 52.183767
Longitude: -9.537628 -9.509939
Elevation: 82 ft. 82 ft.
Runway true heading: 68.6 248.6
 

Instrument Procedures

  Aerodrome Chart

IAPs (Instrument Approach Procedures)

  NDB Rwy 08 (Aircraft CAT A/B/C)
  Aerodrome Obstacle Chart - Rwy 08/26
  ILS or LOC Rwy 26 Aircraft CAT A/B/C
  NDB Rwy 26
  Aerodrome Information (Textual)
  RNP Rwy 08 Aircraft CAT A/B/C
  Visual Approach Chart
  RNP Rwy 26 Aircraft CAT A/B/C

Departure Procedures

  SID Rwy 26 CAT A/B
  SID Rwy 26 CAT C
  SID Rwy 08 CAT A/B
  SID Rwy 08 CAT C
Satellite photo at:
Airport distance calculator
From:
Weather Reports

METAR

EIKY

EIKY 181700Z 25014KT 9999 FEW029 18/12 Q1011
EINN
38.3nm N
EINN 181700Z 26018KT 9999 FEW027 BKN045 18/10 Q1010 NOSIG

TAF

EIKY
TAF EIKY 181400Z 1815/1824 26014KT 9999 FEW015 BKN030
EINN
38.3nm N
TAF EINN 181100Z 1812/1912 24015KT 4000 -RA BKN008 BECMG 1812/1814 27014KT 9999 NSW FEW013 BKN030 PROB30 TEMPO 1812/1814 2000 RADZ BKN004 PROB30 TEMPO 1814/1815 BKN013 BECMG 1819/1821 24012KT TEMPO 1823/1902 27012KT PROB30 TEMPO 1904/1906 4000 SHRA BECMG 1908/1910 25016G27KT
Safelog

 

Dauntless Aviation

© 2007-2022 Dauntless Aviation, all rights reserved
Information provided via PilotNav comes from a variety of official and unofficial data sources. As errors are possible, do not use PilotNav for primary flight planning purposes. Verify any information that you receive via PilotNav with current and canonical charts and other official documents. The material in this database is subject to database copyrights held by Dauntless Aviation and may not be copied without the express permission of Dauntless Aviation - licenses for use of part of all of this data are available for purchase; enquire via the Dauntless Aviation helpdesk. A number of mechanisms and markers exist in the database to protect against and identify infringement / copyright. Automated queries against this website are strictly prohibited, and all activity is logged and analyzed.